createdAt,value
2023-01-29T00:02:52.581Z,23.50
2023-01-29T00:05:46.862Z,23.50
2023-01-29T00:08:43.632Z,23.60
2023-01-29T00:11:38.155Z,23.70
2023-01-29T00:14:32.388Z,23.70
2023-01-29T00:17:29.568Z,23.80
2023-01-29T00:20:23.378Z,23.90
2023-01-29T00:23:17.878Z,23.90
2023-01-29T00:26:12.581Z,24.00
2023-01-29T00:29:07.641Z,24.10
2023-01-29T00:32:01.956Z,24.10
2023-01-29T00:34:56.341Z,24.10
2023-01-29T00:37:50.590Z,24.20
2023-01-29T00:41:03.078Z,24.20
2023-01-29T00:44:16.203Z,24.30
2023-01-29T00:47:30.376Z,24.40
2023-01-29T00:50:24.716Z,24.50
2023-01-29T00:53:19.068Z,24.50
2023-01-29T00:56:13.389Z,24.60
2023-01-29T00:59:07.767Z,24.40
2023-01-29T01:02:20.631Z,24.30
2023-01-29T01:05:19.343Z,24.20
2023-01-29T01:08:31.899Z,24.10
2023-01-29T01:11:26.271Z,24.10
2023-01-29T01:14:21.969Z,24.00
2023-01-29T01:17:16.897Z,23.90
2023-01-29T01:20:14.951Z,23.90
2023-01-29T01:23:09.658Z,23.90
2023-01-29T01:26:03.927Z,23.80
2023-01-29T01:28:58.326Z,23.70
2023-01-29T01:31:56.246Z,23.60
2023-01-29T01:34:50.618Z,23.60
2023-01-29T01:37:45.192Z,23.60
2023-01-29T01:40:45.482Z,23.60
2023-01-29T01:44:09.155Z,23.60
2023-01-29T01:47:04.114Z,23.70
2023-01-29T01:50:06.705Z,23.70
2023-01-29T01:53:11.588Z,23.60
2023-01-29T01:56:18.002Z,23.60
2023-01-29T01:59:18.842Z,23.60
2023-01-29T02:02:31.329Z,23.70
2023-01-29T02:05:44.791Z,23.70
2023-01-29T02:09:24.768Z,23.80
2023-01-29T02:12:20.238Z,23.90
2023-01-29T02:15:15.515Z,24.00
2023-01-29T02:18:10.813Z,24.10
2023-01-29T02:21:08.063Z,24.30
2023-01-29T02:24:20.589Z,24.40
2023-01-29T02:27:23.687Z,24.50
2023-01-29T02:30:41.569Z,24.60
2023-01-29T02:34:01.586Z,24.60
2023-01-29T02:37:06.603Z,24.70
2023-01-29T02:40:18.060Z,24.80
2023-01-29T02:43:43.451Z,24.90
2023-01-29T02:46:54.901Z,25.10
2023-01-29T02:49:58.306Z,25.10
2023-01-29T02:53:20.683Z,25.20
2023-01-29T02:56:54.801Z,25.20
2023-01-29T03:00:00.547Z,25.20
2023-01-29T03:03:36.523Z,25.10
2023-01-29T03:06:37.755Z,25.10
2023-01-29T03:09:43.561Z,25.00
2023-01-29T03:12:42.676Z,24.90
2023-01-29T03:15:43.808Z,24.90
2023-01-29T03:18:47.095Z,24.90
2023-01-29T03:21:52.649Z,24.90
2023-01-29T03:25:09.584Z,24.90
2023-01-29T03:28:24.379Z,25.00
2023-01-29T03:31:38.653Z,24.90
2023-01-29T03:34:40.212Z,24.90
2023-01-29T03:37:43.729Z,24.80
2023-01-29T03:40:57.592Z,24.70
2023-01-29T03:44:02.415Z,24.70
2023-01-29T03:47:06.651Z,24.70
2023-01-29T03:50:22.170Z,24.80
2023-01-29T03:53:39.513Z,24.80
2023-01-29T03:56:56.004Z,24.90
2023-01-29T03:59:50.320Z,25.00
2023-01-29T04:03:16.380Z,25.00
2023-01-29T04:06:25.527Z,25.10
2023-01-29T04:09:24.628Z,25.30
2023-01-29T04:12:25.154Z,25.30
2023-01-29T04:15:21.001Z,25.30
2023-01-29T04:18:15.592Z,25.30
2023-01-29T04:21:12.446Z,25.30
2023-01-29T04:24:08.591Z,25.20
2023-01-29T04:27:23.072Z,25.10
2023-01-29T04:30:49.279Z,25.10
2023-01-29T04:34:06.703Z,25.10
2023-01-29T04:37:39.561Z,25.10
2023-01-29T04:40:58.173Z,25.00
2023-01-29T04:44:11.159Z,25.00
2023-01-29T04:47:34.029Z,25.00
2023-01-29T04:50:41.332Z,25.00
2023-01-29T04:54:01.595Z,25.00
2023-01-29T04:57:32.944Z,25.00
2023-01-29T05:00:30.020Z,25.00
2023-01-29T05:03:27.556Z,25.00
2023-01-29T05:06:25.378Z,25.10
2023-01-29T05:09:21.662Z,25.10
2023-01-29T05:12:18.200Z,25.10
2023-01-29T05:15:20.501Z,25.10
2023-01-29T05:18:15.023Z,25.20
2023-01-29T05:21:11.135Z,25.20
2023-01-29T05:24:31.385Z,25.20
2023-01-29T05:27:52.545Z,25.20
2023-01-29T05:30:49.590Z,25.20
2023-01-29T05:33:43.980Z,25.20
2023-01-29T05:36:38.275Z,25.10
2023-01-29T05:39:32.750Z,25.10
2023-01-29T05:42:27.043Z,25.10
2023-01-29T05:45:22.248Z,25.20
2023-01-29T05:48:16.466Z,25.20
2023-01-29T05:51:10.823Z,25.20
2023-01-29T05:54:05.181Z,25.30
2023-01-29T05:56:59.487Z,25.30
2023-01-29T05:59:53.693Z,25.30
2023-01-29T06:02:48.042Z,25.30
2023-01-29T06:05:42.804Z,25.20
2023-01-29T06:08:40.022Z,25.20
2023-01-29T06:11:33.771Z,25.20
2023-01-29T06:14:28.243Z,25.20
2023-01-29T06:17:22.545Z,25.20
2023-01-29T06:20:17.165Z,25.10
2023-01-29T06:23:11.769Z,25.10
2023-01-29T06:26:14.352Z,25.10
2023-01-29T06:29:08.603Z,25.20
2023-01-29T06:32:03.326Z,25.20
2023-01-29T06:34:57.639Z,25.20
2023-01-29T06:37:53.123Z,25.20
2023-01-29T06:40:47.334Z,25.30
2023-01-29T06:43:41.866Z,25.30
2023-01-29T06:46:36.178Z,25.20
2023-01-29T06:49:30.470Z,25.20
2023-01-29T06:52:26.610Z,25.30
2023-01-29T06:55:20.905Z,25.20
2023-01-29T06:58:15.154Z,25.20
2023-01-29T07:01:29.261Z,25.20
2023-01-29T07:04:28.842Z,25.30
2023-01-29T07:07:23.140Z,25.20
2023-01-29T07:10:18.177Z,25.20
2023-01-29T07:13:12.829Z,25.20
2023-01-29T07:16:08.379Z,25.10
2023-01-29T07:19:10.336Z,25.20
2023-01-29T07:22:07.865Z,25.20
2023-01-29T07:25:02.286Z,25.20
2023-01-29T07:27:56.471Z,25.30
2023-01-29T07:30:50.807Z,25.40
2023-01-29T07:33:48.194Z,25.50
2023-01-29T07:36:42.529Z,25.50
2023-01-29T07:39:36.831Z,25.50
2023-01-29T07:42:31.213Z,25.50
2023-01-29T07:45:25.462Z,25.50
2023-01-29T07:48:20.014Z,25.50
2023-01-29T07:51:14.291Z,25.50
2023-01-29T07:54:08.783Z,25.50
2023-01-29T07:57:03.052Z,25.40
2023-01-29T07:59:57.395Z,25.40
2023-01-29T08:02:51.835Z,25.30
2023-01-29T08:05:46.778Z,25.20
2023-01-29T08:08:42.753Z,25.20
2023-01-29T08:11:37.213Z,25.20
2023-01-29T08:14:31.395Z,25.10
2023-01-29T08:17:25.906Z,25.20
2023-01-29T08:20:20.806Z,25.20
2023-01-29T08:23:17.848Z,25.30
2023-01-29T08:26:14.886Z,25.30
2023-01-29T08:29:09.216Z,25.30
2023-01-29T08:32:03.529Z,25.30
2023-01-29T08:34:57.773Z,25.30
2023-01-29T08:38:03.231Z,25.30
2023-01-29T08:40:57.510Z,25.30
2023-01-29T08:43:51.720Z,25.40
2023-01-29T08:46:46.137Z,25.30
2023-01-29T08:49:40.312Z,25.30
2023-01-29T08:52:34.610Z,25.40
2023-01-29T08:55:29.435Z,25.30
2023-01-29T08:58:25.949Z,25.30
2023-01-29T09:01:20.376Z,25.30
2023-01-29T09:04:14.627Z,25.20
2023-01-29T09:07:08.812Z,25.20
2023-01-29T09:10:03.190Z,25.10
2023-01-29T09:12:57.501Z,25.00
2023-01-29T09:15:52.104Z,24.90
2023-01-29T09:18:46.660Z,24.80
2023-01-29T09:21:41.126Z,24.80
2023-01-29T09:24:36.335Z,24.80
2023-01-29T09:27:30.761Z,24.70
2023-01-29T09:30:25.084Z,24.60
2023-01-29T09:33:19.852Z,24.50
2023-01-29T09:36:14.170Z,24.50
2023-01-29T09:39:08.475Z,24.50
2023-01-29T09:42:07.744Z,24.40
2023-01-29T09:45:22.459Z,24.40
2023-01-29T09:48:19.836Z,24.40
2023-01-29T09:51:27.135Z,24.40
2023-01-29T09:54:24.221Z,24.50
2023-01-29T09:57:26.356Z,24.50
2023-01-29T10:00:41.179Z,24.50
2023-01-29T10:03:46.393Z,24.50
2023-01-29T10:07:07.980Z,24.50
2023-01-29T10:10:11.656Z,24.50
2023-01-29T10:13:22.937Z,24.40
2023-01-29T10:16:23.391Z,24.40
2023-01-29T10:19:36.041Z,24.30
2023-01-29T10:22:54.613Z,24.30
2023-01-29T10:25:50.674Z,24.30
2023-01-29T10:28:48.776Z,24.20
2023-01-29T10:31:46.091Z,24.20
2023-01-29T10:35:01.143Z,24.20
2023-01-29T10:37:58.272Z,24.20
2023-01-29T10:41:12.777Z,24.20
2023-01-29T10:44:10.148Z,24.10
2023-01-29T10:47:23.100Z,24.00
2023-01-29T10:50:39.172Z,23.90
2023-01-29T10:53:55.257Z,23.80
2023-01-29T10:57:24.384Z,23.70
2023-01-29T11:00:29.834Z,23.70
2023-01-29T11:03:32.344Z,23.50
2023-01-29T11:06:30.952Z,23.50
2023-01-29T11:09:41.254Z,23.50
2023-01-29T11:12:36.081Z,23.50
2023-01-29T11:15:40.797Z,23.50
2023-01-29T11:18:55.341Z,23.50
2023-01-29T11:22:02.956Z,23.50
2023-01-29T11:25:18.079Z,23.60
2023-01-29T11:28:12.708Z,23.60
2023-01-29T11:31:21.156Z,23.60
2023-01-29T11:34:23.233Z,23.60
2023-01-29T11:37:20.924Z,23.60
2023-01-29T11:40:21.747Z,23.70
2023-01-29T11:43:22.120Z,23.70
2023-01-29T11:46:17.651Z,23.70
2023-01-29T11:49:24.679Z,23.70
2023-01-29T11:52:22.622Z,23.70
2023-01-29T11:55:29.627Z,23.70
2023-01-29T11:58:34.030Z,23.70
2023-01-29T12:01:42.942Z,23.60
2023-01-29T12:04:41.467Z,23.60
2023-01-29T12:07:36.667Z,23.60
2023-01-29T12:10:43.261Z,23.60
2023-01-29T12:13:37.529Z,23.60
2023-01-29T12:16:57.910Z,23.60
2023-01-29T12:20:05.123Z,23.60
2023-01-29T12:23:13.350Z,23.50
2023-01-29T12:26:15.420Z,23.50
2023-01-29T12:29:18.390Z,23.50
2023-01-29T12:32:43.568Z,23.50
2023-01-29T12:35:52.793Z,23.50
2023-01-29T12:38:47.741Z,23.60
2023-01-29T12:41:48.277Z,23.50
2023-01-29T12:44:44.964Z,23.50
2023-01-29T12:47:53.861Z,23.30
2023-01-29T12:50:50.408Z,23.30
2023-01-29T12:54:05.977Z,23.20
2023-01-29T12:57:04.715Z,23.20
2023-01-29T13:00:08.055Z,23.20
2023-01-29T13:03:20.672Z,23.20
2023-01-29T13:06:19.522Z,23.20
2023-01-29T13:09:22.198Z,23.20
2023-01-29T13:12:24.048Z,23.10
2023-01-29T13:15:48.436Z,23.10
2023-01-29T13:18:54.103Z,23.10
2023-01-29T13:21:49.096Z,23.00
2023-01-29T13:24:49.950Z,23.10
2023-01-29T13:27:53.424Z,23.00
2023-01-29T13:30:48.107Z,23.00
2023-01-29T13:33:44.808Z,23.00
2023-01-29T13:36:43.708Z,23.00
2023-01-29T13:39:47.712Z,23.00
2023-01-29T13:42:49.781Z,23.00
2023-01-29T13:45:49.295Z,23.00
2023-01-29T13:48:46.427Z,22.90
2023-01-29T13:51:40.807Z,22.90
2023-01-29T13:54:35.012Z,22.80
2023-01-29T13:57:46.485Z,22.80
2023-01-29T14:00:43.225Z,22.80
2023-01-29T14:04:08.102Z,22.70
2023-01-29T14:07:07.765Z,22.70
2023-01-29T14:10:17.393Z,22.70
2023-01-29T14:13:20.595Z,22.60
2023-01-29T14:16:14.850Z,22.60
2023-01-29T14:19:19.391Z,22.70
2023-01-29T14:22:33.862Z,22.60
2023-01-29T14:25:40.080Z,22.60
2023-01-29T14:28:36.667Z,22.60
2023-01-29T14:31:40.103Z,22.60
2023-01-29T14:34:43.349Z,22.50
2023-01-29T14:37:55.301Z,22.50
2023-01-29T14:40:56.916Z,22.50
2023-01-29T14:43:52.957Z,22.50
2023-01-29T14:46:47.515Z,22.40
2023-01-29T14:50:28.669Z,22.40
2023-01-29T14:53:32.140Z,22.30
2023-01-29T14:56:38.855Z,22.20
2023-01-29T14:59:39.088Z,22.20
2023-01-29T15:02:40.390Z,22.10
2023-01-29T15:05:41.423Z,22.10
2023-01-29T15:08:45.428Z,22.10
2023-01-29T15:11:57.816Z,22.10
2023-01-29T15:15:33.627Z,22.10
2023-01-29T15:18:44.511Z,22.10
2023-01-29T15:21:38.757Z,22.00
2023-01-29T15:24:33.144Z,22.00
2023-01-29T15:27:27.421Z,22.00
2023-01-29T15:30:32.688Z,21.90
2023-01-29T15:33:27.830Z,21.90
2023-01-29T15:36:30.907Z,21.90
2023-01-29T15:39:26.673Z,21.90
2023-01-29T15:42:26.988Z,21.80
2023-01-29T15:45:32.325Z,21.80
2023-01-29T15:48:57.315Z,21.70
2023-01-29T15:51:58.034Z,21.80
2023-01-29T15:54:53.911Z,21.70
2023-01-29T15:57:49.910Z,21.70
2023-01-29T16:00:54.891Z,21.60
2023-01-29T16:03:51.915Z,21.60
2023-01-29T16:06:46.888Z,21.60
2023-01-29T16:09:41.502Z,21.50
2023-01-29T16:12:36.610Z,21.50
2023-01-29T16:15:41.482Z,21.50
2023-01-29T16:18:47.757Z,21.40
2023-01-29T16:21:54.471Z,21.50
2023-01-29T16:24:51.246Z,21.50
2023-01-29T16:27:46.121Z,21.40
2023-01-29T16:30:41.273Z,21.30
2023-01-29T16:33:42.215Z,21.30
2023-01-29T16:36:45.404Z,21.30
2023-01-29T16:39:45.442Z,21.30
2023-01-29T16:42:39.844Z,21.30
2023-01-29T16:45:34.096Z,21.20
2023-01-29T16:48:33.055Z,21.10
2023-01-29T16:51:37.610Z,21.10
2023-01-29T16:54:32.020Z,21.10
2023-01-29T16:57:30.941Z,21.10
2023-01-29T17:00:34.865Z,21.10
2023-01-29T17:03:32.008Z,21.10
2023-01-29T17:06:30.866Z,21.10
2023-01-29T17:09:38.703Z,21.10
2023-01-29T17:12:34.304Z,21.10
2023-01-29T17:15:45.198Z,21.10
2023-01-29T17:18:40.361Z,21.00
2023-01-29T17:21:34.594Z,21.00
2023-01-29T17:24:32.923Z,21.00
2023-01-29T17:27:27.331Z,21.00
2023-01-29T17:30:31.959Z,20.90
2023-01-29T17:33:27.690Z,20.90
2023-01-29T17:36:22.263Z,20.90
2023-01-29T17:39:19.534Z,20.90
2023-01-29T17:42:14.564Z,20.90
2023-01-29T17:45:09.416Z,20.90
2023-01-29T17:48:03.872Z,20.90
2023-01-29T17:51:02.199Z,20.70
2023-01-29T17:53:56.598Z,20.70
2023-01-29T17:56:51.654Z,20.70
2023-01-29T17:59:49.742Z,20.70
2023-01-29T18:02:43.976Z,20.70
2023-01-29T18:05:40.462Z,20.70
2023-01-29T18:08:37.745Z,20.70
2023-01-29T18:11:31.643Z,20.70
2023-01-29T18:14:26.385Z,20.60
2023-01-29T18:17:23.755Z,20.60
2023-01-29T18:20:22.484Z,20.60
2023-01-29T18:23:20.731Z,20.60
2023-01-29T18:26:19.223Z,20.60
2023-01-29T18:29:13.732Z,20.60
2023-01-29T18:32:08.126Z,20.60
2023-01-29T18:35:02.602Z,20.60
2023-01-29T18:37:57.187Z,20.50
2023-01-29T18:40:51.824Z,20.50
2023-01-29T18:43:46.068Z,20.50
2023-01-29T18:46:40.648Z,20.40
2023-01-29T18:49:37.481Z,20.50
2023-01-29T18:52:31.892Z,20.40
2023-01-29T18:55:27.741Z,20.40
2023-01-29T18:58:29.132Z,20.40
2023-01-29T19:01:30.149Z,20.40
2023-01-29T19:04:28.517Z,20.40
2023-01-29T19:07:22.827Z,20.40
2023-01-29T19:10:18.421Z,20.30
2023-01-29T19:13:12.676Z,20.30
2023-01-29T19:16:11.746Z,20.30
2023-01-29T19:19:08.322Z,20.30
2023-01-29T19:22:02.792Z,20.20
2023-01-29T19:24:57.222Z,20.20
2023-01-29T19:27:51.499Z,20.20
2023-01-29T19:30:46.013Z,20.20
2023-01-29T19:33:42.423Z,20.20
2023-01-29T19:36:41.471Z,20.20
2023-01-29T19:39:36.151Z,20.20
2023-01-29T19:42:30.574Z,20.20
2023-01-29T19:45:49.610Z,20.10
2023-01-29T19:48:41.855Z,20.10
2023-01-29T19:51:36.229Z,20.10
2023-01-29T19:54:33.517Z,20.10
2023-01-29T19:57:27.350Z,20.10
2023-01-29T20:00:22.810Z,20.10
2023-01-29T20:03:26.466Z,20.10
2023-01-29T20:06:25.040Z,20.00
2023-01-29T20:09:19.446Z,20.00
2023-01-29T20:12:14.382Z,20.00
2023-01-29T20:15:09.714Z,20.00
2023-01-29T20:18:05.042Z,19.90
2023-01-29T20:21:00.810Z,19.80
2023-01-29T20:23:55.437Z,19.80
2023-01-29T20:26:49.743Z,19.90
2023-01-29T20:29:48.237Z,19.90
2023-01-29T20:32:44.936Z,19.90
2023-01-29T20:35:40.294Z,19.90
2023-01-29T20:38:35.926Z,19.90
2023-01-29T20:41:30.131Z,19.90
2023-01-29T20:44:25.455Z,19.90
2023-01-29T20:47:19.723Z,19.90
2023-01-29T20:50:20.211Z,19.90
2023-01-29T20:53:14.509Z,19.90
2023-01-29T20:56:09.987Z,19.90
2023-01-29T20:59:06.014Z,20.00
2023-01-29T21:02:03.168Z,20.00
2023-01-29T21:04:57.936Z,20.00
2023-01-29T21:07:52.169Z,20.10
2023-01-29T21:10:49.005Z,20.10
2023-01-29T21:13:45.234Z,20.10
2023-01-29T21:16:39.445Z,20.10
2023-01-29T21:19:34.435Z,20.10
2023-01-29T21:22:28.714Z,20.10
2023-01-29T21:25:24.301Z,20.20
2023-01-29T21:28:18.578Z,20.20
2023-01-29T21:31:15.979Z,20.30
2023-01-29T21:34:11.004Z,20.30
2023-01-29T21:37:05.310Z,20.30
2023-01-29T21:40:02.444Z,20.30
2023-01-29T21:43:16.657Z,20.40
2023-01-29T21:46:14.086Z,20.50
2023-01-29T21:49:08.505Z,20.50
2023-01-29T21:52:02.818Z,20.60
2023-01-29T21:54:57.234Z,20.70
2023-01-29T21:57:51.918Z,20.80
2023-01-29T22:00:49.809Z,20.80
2023-01-29T22:03:46.733Z,20.90
2023-01-29T22:06:40.992Z,21.00
2023-01-29T22:09:35.258Z,21.10
2023-01-29T22:12:29.568Z,21.20
2023-01-29T22:15:24.084Z,21.30
2023-01-29T22:18:18.703Z,21.40
2023-01-29T22:21:12.979Z,21.50
2023-01-29T22:24:10.753Z,21.50
2023-01-29T22:27:05.138Z,21.60
2023-01-29T22:29:59.518Z,21.80
2023-01-29T22:32:54.091Z,22.00
2023-01-29T22:35:50.468Z,22.30
2023-01-29T22:38:45.330Z,22.60
2023-01-29T22:41:39.596Z,23.00
2023-01-29T22:44:33.784Z,23.40
2023-01-29T22:47:28.126Z,23.80
2023-01-29T22:50:22.577Z,24.10
2023-01-29T22:53:16.822Z,24.40
2023-01-29T22:56:11.941Z,24.50
2023-01-29T22:59:06.310Z,24.70
2023-01-29T23:02:00.851Z,24.80
2023-01-29T23:04:55.299Z,25.00
2023-01-29T23:07:49.664Z,25.10
2023-01-29T23:10:43.994Z,25.30
2023-01-29T23:13:38.151Z,25.50
2023-01-29T23:16:32.514Z,25.70
2023-01-29T23:19:28.281Z,25.90
2023-01-29T23:22:22.529Z,26.10
2023-01-29T23:25:17.123Z,26.30
2023-01-29T23:28:14.280Z,26.40
2023-01-29T23:31:08.093Z,26.50
2023-01-29T23:34:02.488Z,26.70
2023-01-29T23:36:59.334Z,26.80
2023-01-29T23:39:54.090Z,26.70
2023-01-29T23:42:50.693Z,26.80
2023-01-29T23:45:44.922Z,26.90
2023-01-29T23:48:39.283Z,27.00
2023-01-29T23:51:33.885Z,27.00
2023-01-29T23:54:28.140Z,27.20
2023-01-29T23:57:22.364Z,27.40
